createdAt,value
2023-03-06T00:01:54.148Z,3.71
2023-03-06T00:04:20.803Z,3.75
2023-03-06T00:06:47.307Z,3.62
2023-03-06T00:09:13.882Z,3.47
2023-03-06T00:11:40.392Z,3.61
2023-03-06T00:14:06.892Z,3.79
2023-03-06T00:16:33.565Z,3.72
2023-03-06T00:19:00.125Z,3.58
2023-03-06T00:21:26.663Z,3.63
2023-03-06T00:23:53.310Z,3.60
2023-03-06T00:26:19.789Z,3.87
2023-03-06T00:28:46.355Z,3.92
2023-03-06T00:31:13.287Z,3.92
2023-03-06T00:33:40.992Z,3.84
2023-03-06T00:36:08.471Z,3.70
2023-03-06T00:38:35.335Z,3.86
2023-03-06T00:41:12.184Z,3.92
2023-03-06T00:43:39.037Z,4.11
2023-03-06T00:46:06.092Z,4.14
2023-03-06T00:48:33.953Z,4.26
2023-03-06T00:51:00.878Z,4.34
2023-03-06T00:53:27.695Z,4.39
2023-03-06T00:55:56.525Z,4.17
2023-03-06T00:58:23.427Z,4.03
2023-03-06T01:00:50.194Z,4.20
2023-03-06T01:03:16.697Z,4.15
2023-03-06T01:05:43.516Z,4.17
2023-03-06T01:08:10.048Z,4.15
2023-03-06T01:10:40.793Z,4.24
2023-03-06T01:13:07.335Z,4.19
2023-03-06T01:15:33.923Z,4.16
2023-03-06T01:18:00.826Z,4.24
2023-03-06T01:20:27.799Z,4.09
2023-03-06T01:22:54.331Z,3.94
2023-03-06T01:25:21.099Z,3.97
2023-03-06T01:27:47.651Z,3.83
2023-03-06T01:30:14.273Z,3.86
2023-03-06T01:32:40.852Z,3.77
2023-03-06T01:35:08.102Z,3.78
2023-03-06T01:37:36.467Z,3.68
2023-03-06T01:40:03.332Z,3.72
2023-03-06T01:42:32.024Z,3.62
2023-03-06T01:45:07.321Z,3.47
2023-03-06T01:47:33.973Z,3.61
2023-03-06T01:50:01.538Z,3.64
2023-03-06T01:52:33.268Z,3.44
2023-03-06T01:55:04.353Z,3.33
2023-03-06T01:57:34.316Z,3.41
2023-03-06T02:00:23.241Z,3.30
2023-03-06T02:03:01.309Z,3.31
2023-03-06T02:05:27.842Z,3.37
2023-03-06T02:07:54.610Z,3.33
2023-03-06T02:10:21.234Z,3.42
2023-03-06T02:12:48.366Z,3.51
2023-03-06T02:15:18.333Z,3.35
2023-03-06T02:17:46.106Z,3.29
2023-03-06T02:20:36.320Z,3.07
2023-03-06T02:23:20.984Z,3.01
2023-03-06T02:25:49.917Z,2.99
2023-03-06T02:28:19.332Z,3.09
2023-03-06T02:30:48.263Z,3.05
2023-03-06T02:33:17.177Z,3.00
2023-03-06T02:35:47.346Z,3.12
2023-03-06T02:38:15.506Z,3.12
2023-03-06T02:40:44.404Z,3.13
2023-03-06T02:43:11.542Z,3.01
2023-03-06T02:45:41.663Z,3.14
2023-03-06T02:48:08.187Z,2.96
2023-03-06T02:50:34.727Z,2.97
2023-03-06T02:53:01.280Z,3.10
2023-03-06T02:55:27.851Z,3.20
2023-03-06T02:57:54.400Z,3.16
2023-03-06T03:00:21.028Z,3.03
2023-03-06T03:02:47.691Z,3.09
2023-03-06T03:05:14.223Z,3.30
2023-03-06T03:07:40.778Z,3.42
2023-03-06T03:10:07.840Z,3.33
2023-03-06T03:12:34.327Z,3.09
2023-03-06T03:15:01.470Z,3.06
2023-03-06T03:17:28.540Z,3.00
2023-03-06T03:19:55.115Z,2.87
2023-03-06T03:22:21.652Z,2.97
2023-03-06T03:24:48.235Z,3.01
2023-03-06T03:27:15.236Z,3.00
2023-03-06T03:29:41.813Z,2.97
2023-03-06T03:32:08.592Z,2.99
2023-03-06T03:34:35.268Z,2.85
2023-03-06T03:37:01.846Z,2.95
2023-03-06T03:39:28.389Z,2.90
2023-03-06T03:41:54.903Z,3.05
2023-03-06T03:44:21.434Z,3.02
2023-03-06T03:46:48.038Z,2.94
2023-03-06T03:49:14.912Z,2.89
2023-03-06T03:51:41.450Z,2.77
2023-03-06T03:54:07.939Z,2.93
2023-03-06T03:56:34.478Z,3.05
2023-03-06T03:59:01.242Z,2.92
2023-03-06T04:01:27.953Z,2.97
2023-03-06T04:03:54.516Z,3.05
2023-03-06T04:06:21.110Z,3.11
2023-03-06T04:08:47.711Z,3.22
2023-03-06T04:11:14.211Z,3.32
2023-03-06T04:13:40.747Z,3.38
2023-03-06T04:16:07.652Z,3.47
2023-03-06T04:18:34.158Z,3.48
2023-03-06T04:21:00.828Z,3.48
2023-03-06T04:23:27.330Z,3.43
2023-03-06T04:25:54.057Z,3.37
2023-03-06T04:28:20.848Z,3.36
2023-03-06T04:30:47.386Z,3.22
2023-03-06T04:33:13.927Z,3.20
2023-03-06T04:35:40.564Z,3.19
2023-03-06T04:38:07.404Z,3.17
2023-03-06T04:40:36.038Z,3.18
2023-03-06T04:43:03.720Z,3.27
2023-03-06T04:45:31.439Z,3.22
2023-03-06T04:47:58.617Z,3.28
2023-03-06T04:50:27.463Z,3.35
2023-03-06T04:52:54.548Z,3.30
2023-03-06T04:55:21.167Z,3.38
2023-03-06T04:57:47.992Z,3.10
2023-03-06T05:00:21.218Z,3.17
2023-03-06T05:02:48.788Z,3.14
2023-03-06T05:05:16.102Z,3.17
2023-03-06T05:07:43.925Z,3.15
2023-03-06T05:10:12.746Z,3.28
2023-03-06T05:12:39.316Z,3.24
2023-03-06T05:15:07.079Z,3.28
2023-03-06T05:17:34.163Z,3.22
2023-03-06T05:20:00.698Z,2.95
2023-03-06T05:22:27.330Z,2.83
2023-03-06T05:24:53.875Z,2.73
2023-03-06T05:27:20.445Z,2.87
2023-03-06T05:29:47.295Z,2.75
2023-03-06T05:32:13.903Z,2.76
2023-03-06T05:34:40.551Z,2.58
2023-03-06T05:37:07.083Z,2.69
2023-03-06T05:39:33.575Z,2.77
2023-03-06T05:42:00.126Z,2.98
2023-03-06T05:44:34.364Z,2.91
2023-03-06T05:47:01.354Z,2.77
2023-03-06T05:49:32.626Z,2.65
2023-03-06T05:51:59.514Z,2.86
2023-03-06T05:54:26.011Z,3.00
2023-03-06T05:56:52.575Z,3.11
2023-03-06T05:59:19.062Z,3.28
2023-03-06T06:01:45.544Z,3.41
2023-03-06T06:04:12.081Z,3.54
2023-03-06T06:06:38.537Z,3.25
2023-03-06T06:09:05.073Z,3.20
2023-03-06T06:11:31.726Z,3.23
2023-03-06T06:14:03.379Z,3.14
2023-03-06T06:16:30.357Z,3.33
2023-03-06T06:18:57.560Z,3.51
2023-03-06T06:21:24.050Z,3.60
2023-03-06T06:23:50.624Z,3.80
2023-03-06T06:26:17.161Z,3.87
2023-03-06T06:28:44.766Z,3.93
2023-03-06T06:31:12.129Z,4.02
2023-03-06T06:33:40.356Z,4.15
2023-03-06T06:36:15.894Z,4.19
2023-03-06T06:38:42.859Z,4.38
2023-03-06T06:41:38.993Z,4.48
2023-03-06T06:43:58.695Z,4.53
2023-03-06T06:47:17.895Z,4.34
2023-03-06T06:49:14.401Z,4.22
2023-03-06T06:51:41.051Z,4.29
2023-03-06T06:54:07.948Z,4.53
2023-03-06T06:56:34.721Z,4.80
2023-03-06T06:59:15.310Z,5.01
2023-03-06T07:01:42.986Z,4.82
2023-03-06T07:04:12.571Z,4.97
2023-03-06T07:06:39.098Z,5.21
2023-03-06T07:09:05.601Z,5.57
2023-03-06T07:11:32.347Z,5.71
2023-03-06T07:13:58.886Z,5.83
2023-03-06T07:16:25.420Z,6.16
2023-03-06T07:18:51.925Z,6.22
2023-03-06T07:21:18.460Z,6.44
2023-03-06T07:23:45.055Z,6.43
2023-03-06T07:26:11.917Z,6.74
2023-03-06T07:28:52.079Z,6.85
2023-03-06T07:31:24.494Z,6.90
2023-03-06T07:33:54.658Z,7.00
2023-03-06T07:36:22.399Z,7.06
2023-03-06T07:38:49.120Z,7.09
2023-03-06T07:41:16.037Z,7.13
2023-03-06T07:43:43.966Z,7.16
2023-03-06T07:46:10.541Z,7.18
2023-03-06T07:48:37.654Z,7.20
2023-03-06T07:51:10.611Z,7.26
2023-03-06T07:53:37.149Z,7.22
2023-03-06T07:56:05.026Z,7.20
2023-03-06T07:58:33.343Z,7.13
2023-03-06T08:01:07.126Z,7.43
2023-03-06T08:03:34.021Z,7.49
2023-03-06T08:06:10.515Z,7.62
2023-03-06T08:08:38.471Z,7.68
2023-03-06T08:11:06.335Z,7.65
2023-03-06T08:13:32.911Z,7.61
2023-03-06T08:15:59.439Z,7.61
2023-03-06T08:18:27.076Z,7.52
2023-03-06T08:21:11.071Z,7.31
2023-03-06T08:23:38.137Z,7.42
2023-03-06T08:26:07.022Z,7.52
2023-03-06T08:28:34.045Z,7.73
2023-03-06T08:31:27.926Z,8.01
2023-03-06T08:33:55.565Z,8.12
2023-03-06T08:36:22.070Z,8.14
2023-03-06T08:38:48.612Z,8.29
2023-03-06T08:41:15.143Z,8.34
2023-03-06T08:43:42.001Z,8.50
2023-03-06T08:46:10.445Z,8.76
2023-03-06T08:48:37.326Z,8.85
2023-03-06T08:51:03.988Z,8.65
2023-03-06T08:53:42.675Z,9.15
2023-03-06T08:56:26.119Z,9.45
2023-03-06T08:58:53.235Z,9.57
2023-03-06T09:01:25.983Z,9.53
2023-03-06T09:03:57.714Z,9.27
2023-03-06T09:06:24.906Z,9.17
2023-03-06T09:08:52.275Z,9.21
2023-03-06T09:11:20.736Z,9.36
2023-03-06T09:13:47.232Z,9.69
2023-03-06T09:16:13.772Z,9.74
2023-03-06T09:18:40.370Z,9.52
2023-03-06T09:21:08.107Z,9.74
2023-03-06T09:23:35.374Z,9.92
2023-03-06T09:26:02.029Z,9.97
2023-03-06T09:28:29.251Z,10.02
2023-03-06T09:30:56.076Z,9.64
2023-03-06T09:33:22.629Z,9.87
2023-03-06T09:35:53.217Z,9.79
2023-03-06T09:38:21.567Z,9.94
2023-03-06T09:40:57.343Z,9.88
2023-03-06T09:43:34.433Z,9.59
2023-03-06T09:46:06.111Z,9.67
2023-03-06T09:49:12.354Z,9.66
2023-03-06T09:52:16.372Z,9.31
2023-03-06T09:54:45.563Z,9.27
2023-03-06T09:57:33.281Z,9.26
2023-03-06T10:00:04.666Z,9.42
2023-03-06T10:02:51.374Z,9.34
2023-03-06T10:05:27.154Z,9.34
2023-03-06T10:08:04.390Z,9.31
2023-03-06T10:11:04.245Z,8.81
2023-03-06T10:13:51.967Z,8.78
2023-03-06T10:16:18.629Z,8.70
2023-03-06T10:18:45.214Z,8.41
2023-03-06T10:21:28.618Z,8.59
2023-03-06T10:24:17.358Z,8.42
2023-03-06T10:26:52.879Z,8.24
2023-03-06T10:30:01.729Z,8.17
2023-03-06T10:32:51.393Z,8.20
2023-03-06T10:35:20.996Z,8.18
2023-03-06T10:37:48.652Z,8.21
2023-03-06T10:40:21.623Z,8.33
2023-03-06T10:42:49.527Z,8.44
2023-03-06T10:45:19.837Z,8.52
2023-03-06T10:47:46.595Z,8.47
2023-03-06T10:50:23.661Z,8.56
2023-03-06T10:53:02.138Z,8.28
2023-03-06T10:55:31.250Z,8.33
2023-03-06T10:57:57.928Z,8.30
2023-03-06T11:00:24.975Z,8.14
2023-03-06T11:03:21.640Z,8.10
2023-03-06T11:06:02.106Z,8.31
2023-03-06T11:08:29.624Z,8.30
2023-03-06T11:11:01.094Z,7.85
2023-03-06T11:13:30.501Z,7.69
2023-03-06T11:16:05.112Z,7.68
2023-03-06T11:18:40.891Z,7.92
2023-03-06T11:21:31.281Z,8.23
2023-03-06T11:24:18.494Z,8.29
2023-03-06T11:26:54.841Z,8.35
2023-03-06T11:29:24.053Z,8.56
2023-03-06T11:31:56.982Z,8.54
2023-03-06T11:34:38.744Z,8.23
2023-03-06T11:37:23.701Z,8.23
2023-03-06T11:40:00.887Z,8.19
2023-03-06T11:42:31.807Z,8.20
2023-03-06T11:45:07.205Z,8.00
2023-03-06T11:47:37.673Z,7.78
2023-03-06T11:50:34.624Z,8.07
2023-03-06T11:53:08.031Z,8.14
2023-03-06T11:55:45.635Z,8.48
2023-03-06T11:58:39.959Z,8.57
2023-03-06T12:01:10.477Z,8.60
2023-03-06T12:04:07.462Z,8.68
2023-03-06T12:06:36.952Z,8.81
2023-03-06T12:09:12.220Z,9.03
2023-03-06T12:11:48.196Z,8.92
2023-03-06T12:14:49.997Z,8.98
2023-03-06T12:17:55.970Z,9.29
2023-03-06T12:20:43.614Z,9.24
2023-03-06T12:23:39.242Z,8.77
2023-03-06T12:26:25.723Z,9.04
2023-03-06T12:29:10.497Z,9.24
2023-03-06T12:32:05.142Z,9.45
2023-03-06T12:34:40.999Z,9.40
2023-03-06T12:37:16.902Z,9.13
2023-03-06T12:40:09.778Z,9.07
2023-03-06T12:43:04.250Z,9.30
2023-03-06T12:45:34.609Z,9.40
2023-03-06T12:48:01.389Z,9.38
2023-03-06T12:50:35.543Z,9.28
2023-03-06T12:53:04.757Z,9.01
2023-03-06T12:55:39.801Z,9.15
2023-03-06T12:58:29.562Z,9.33
2023-03-06T13:01:16.044Z,9.46
2023-03-06T13:04:03.723Z,9.43
2023-03-06T13:06:39.123Z,9.81
2023-03-06T13:09:19.263Z,10.00
2023-03-06T13:12:13.772Z,9.94
2023-03-06T13:14:48.772Z,9.80
2023-03-06T13:17:20.419Z,9.87
2023-03-06T13:19:48.082Z,9.70
2023-03-06T13:22:26.859Z,9.56
2023-03-06T13:25:21.339Z,9.53
2023-03-06T13:27:53.583Z,9.53
2023-03-06T13:30:20.089Z,9.50
2023-03-06T13:32:47.073Z,9.64
2023-03-06T13:35:39.681Z,9.77
2023-03-06T13:38:40.979Z,10.09
2023-03-06T13:41:22.710Z,9.89
2023-03-06T13:43:51.494Z,9.76
2023-03-06T13:46:23.834Z,10.06
2023-03-06T13:49:15.174Z,10.14
2023-03-06T13:52:10.881Z,10.13
2023-03-06T13:54:52.651Z,9.94
2023-03-06T13:57:56.875Z,10.10
2023-03-06T14:00:57.489Z,10.29
2023-03-06T14:03:38.565Z,10.40
2023-03-06T14:06:34.303Z,10.40
2023-03-06T14:09:02.368Z,10.41
2023-03-06T14:11:29.159Z,10.47
2023-03-06T14:13:56.849Z,10.49
2023-03-06T14:16:29.085Z,10.54
2023-03-06T14:18:57.688Z,10.52
2023-03-06T14:21:32.847Z,10.56
2023-03-06T14:24:04.024Z,10.86
2023-03-06T14:26:33.685Z,10.94
2023-03-06T14:29:01.869Z,11.01
2023-03-06T14:31:34.794Z,11.08
2023-03-06T14:34:04.114Z,11.32
2023-03-06T14:36:45.306Z,11.28
2023-03-06T14:39:41.221Z,11.24
2023-03-06T14:42:20.846Z,11.21
2023-03-06T14:44:49.000Z,11.12
2023-03-06T14:47:30.386Z,11.13
2023-03-06T14:50:25.783Z,10.94
2023-03-06T14:53:18.494Z,10.93
2023-03-06T14:55:50.147Z,10.87
2023-03-06T14:58:20.593Z,10.81
2023-03-06T15:00:50.343Z,10.85
2023-03-06T15:03:43.822Z,10.82
2023-03-06T15:06:23.140Z,10.78
2023-03-06T15:08:58.670Z,10.81
2023-03-06T15:11:26.248Z,10.72
2023-03-06T15:14:01.017Z,10.62
2023-03-06T15:16:30.012Z,10.57
2023-03-06T15:18:59.749Z,10.65
2023-03-06T15:21:26.928Z,10.59
2023-03-06T15:23:55.948Z,10.52
2023-03-06T15:26:38.712Z,10.46
2023-03-06T15:29:11.133Z,10.55
2023-03-06T15:31:45.552Z,10.50
2023-03-06T15:34:18.291Z,10.52
2023-03-06T15:36:50.612Z,10.13
2023-03-06T15:39:38.054Z,10.22
2023-03-06T15:42:22.347Z,10.06
2023-03-06T15:44:57.920Z,10.17
2023-03-06T15:47:24.618Z,10.02
2023-03-06T15:49:54.367Z,9.89
2023-03-06T15:52:21.807Z,10.06
2023-03-06T15:54:48.844Z,10.09
2023-03-06T15:57:27.133Z,10.22
2023-03-06T15:59:55.613Z,10.19
2023-03-06T16:02:23.682Z,10.03
2023-03-06T16:04:50.938Z,10.16
2023-03-06T16:07:18.833Z,10.10
2023-03-06T16:09:46.064Z,9.98
2023-03-06T16:12:17.425Z,10.13
2023-03-06T16:14:45.382Z,10.25
2023-03-06T16:17:12.257Z,10.37
2023-03-06T16:19:39.096Z,10.63
2023-03-06T16:22:05.630Z,10.81
2023-03-06T16:24:32.144Z,10.51
2023-03-06T16:27:01.210Z,10.36
2023-03-06T16:29:28.939Z,9.96
2023-03-06T16:31:57.296Z,9.93
2023-03-06T16:34:24.316Z,9.99
2023-03-06T16:36:51.219Z,10.14
2023-03-06T16:39:20.106Z,10.16
2023-03-06T16:41:46.840Z,9.92
2023-03-06T16:44:13.466Z,9.79
2023-03-06T16:46:42.465Z,9.70
2023-03-06T16:49:15.398Z,9.82
2023-03-06T16:51:41.895Z,9.80
2023-03-06T16:54:08.371Z,9.89
2023-03-06T16:56:34.848Z,9.68
2023-03-06T16:59:01.424Z,9.56
2023-03-06T17:01:28.007Z,9.48
2023-03-06T17:03:54.699Z,9.26
2023-03-06T17:06:22.460Z,8.95
2023-03-06T17:08:50.348Z,8.84
2023-03-06T17:11:18.420Z,8.82
2023-03-06T17:13:47.430Z,8.66
2023-03-06T17:16:14.489Z,8.49
2023-03-06T17:18:42.311Z,8.20
2023-03-06T17:21:09.328Z,8.16
2023-03-06T17:23:36.279Z,8.07
2023-03-06T17:26:07.162Z,8.09
2023-03-06T17:28:34.795Z,7.83
2023-03-06T17:31:02.874Z,7.59
2023-03-06T17:33:29.523Z,7.54
2023-03-06T17:36:00.555Z,7.52
2023-03-06T17:38:27.721Z,7.41
2023-03-06T17:40:54.323Z,7.43
2023-03-06T17:43:21.155Z,7.35
2023-03-06T17:45:47.690Z,7.49
2023-03-06T17:48:14.354Z,7.25
2023-03-06T17:50:40.901Z,7.33
2023-03-06T17:53:07.406Z,6.92
2023-03-06T17:55:33.982Z,6.88
2023-03-06T17:58:00.547Z,6.72
2023-03-06T18:00:27.115Z,6.65
2023-03-06T18:02:53.685Z,6.63
2023-03-06T18:05:20.844Z,6.43
2023-03-06T18:07:48.715Z,6.18
2023-03-06T18:10:17.784Z,6.08
2023-03-06T18:12:45.506Z,6.07
2023-03-06T18:15:12.372Z,6.17
2023-03-06T18:17:39.089Z,6.19
2023-03-06T18:20:06.269Z,6.18
2023-03-06T18:22:32.914Z,5.91
2023-03-06T18:24:59.518Z,5.75
2023-03-06T18:27:26.084Z,5.64
2023-03-06T18:29:52.600Z,6.01
2023-03-06T18:32:19.300Z,5.99
2023-03-06T18:34:45.806Z,5.69
2023-03-06T18:37:12.675Z,5.51
2023-03-06T18:39:39.151Z,5.52
2023-03-06T18:42:05.827Z,5.68
2023-03-06T18:44:32.353Z,5.86
2023-03-06T18:46:58.991Z,6.04
2023-03-06T18:49:25.509Z,5.79
2023-03-06T18:51:52.157Z,5.44
2023-03-06T18:54:18.836Z,5.18
2023-03-06T18:56:45.393Z,5.17
2023-03-06T18:59:18.913Z,4.90
2023-03-06T19:01:46.637Z,4.80
2023-03-06T19:04:15.713Z,4.87
2023-03-06T19:06:42.307Z,4.91
2023-03-06T19:09:08.807Z,4.92
2023-03-06T19:11:35.302Z,4.93
2023-03-06T19:14:01.828Z,5.06
2023-03-06T19:16:29.503Z,5.23
2023-03-06T19:18:56.661Z,5.06
2023-03-06T19:21:25.326Z,5.01
2023-03-06T19:23:54.244Z,5.17
2023-03-06T19:26:23.284Z,5.06
2023-03-06T19:28:52.609Z,4.97
2023-03-06T19:31:23.922Z,5.27
2023-03-06T19:33:51.249Z,5.14
2023-03-06T19:36:21.136Z,5.10
2023-03-06T19:38:47.614Z,5.10
2023-03-06T19:41:15.251Z,4.97
2023-03-06T19:43:43.063Z,5.05
2023-03-06T19:46:13.738Z,4.70
2023-03-06T19:48:41.406Z,4.73
2023-03-06T19:51:08.133Z,4.70
2023-03-06T19:53:34.785Z,4.64
2023-03-06T19:56:06.355Z,4.41
2023-03-06T19:58:33.172Z,4.43
2023-03-06T20:01:11.039Z,4.48
2023-03-06T20:03:40.107Z,4.48
2023-03-06T20:06:06.855Z,4.55
2023-03-06T20:08:33.407Z,4.53
2023-03-06T20:10:59.951Z,4.55
2023-03-06T20:13:26.538Z,4.44
2023-03-06T20:15:53.061Z,4.57
2023-03-06T20:18:19.583Z,4.45
2023-03-06T20:20:46.173Z,4.45
2023-03-06T20:23:14.584Z,4.52
2023-03-06T20:25:42.824Z,4.28
2023-03-06T20:28:09.331Z,4.37
2023-03-06T20:30:38.468Z,4.28
2023-03-06T20:33:05.102Z,4.19
2023-03-06T20:35:31.752Z,4.15
2023-03-06T20:37:58.373Z,4.04
2023-03-06T20:40:26.102Z,4.08
2023-03-06T20:42:52.774Z,4.09
2023-03-06T20:45:19.562Z,4.09
2023-03-06T20:47:46.074Z,4.11
2023-03-06T20:50:14.784Z,4.09
2023-03-06T20:52:41.700Z,3.91
2023-03-06T20:55:09.932Z,3.97
2023-03-06T20:57:39.516Z,4.09
2023-03-06T21:00:06.808Z,4.13
2023-03-06T21:02:33.327Z,4.22
2023-03-06T21:05:00.385Z,4.24
2023-03-06T21:07:26.981Z,4.43
2023-03-06T21:09:53.547Z,4.47
2023-03-06T21:12:20.116Z,4.49
2023-03-06T21:14:46.771Z,4.49
2023-03-06T21:17:15.573Z,4.56
2023-03-06T21:19:42.199Z,4.60
2023-03-06T21:22:08.746Z,4.39
2023-03-06T21:24:35.647Z,4.57
2023-03-06T21:27:04.676Z,4.68
2023-03-06T21:29:34.775Z,4.59
2023-03-06T21:32:01.369Z,4.70
2023-03-06T21:34:28.012Z,4.65
2023-03-06T21:36:54.646Z,4.87
2023-03-06T21:39:21.249Z,4.45
2023-03-06T21:41:47.760Z,4.57
2023-03-06T21:44:14.355Z,4.66
2023-03-06T21:46:40.849Z,4.75
2023-03-06T21:49:07.386Z,4.66
2023-03-06T21:51:34.112Z,4.82
2023-03-06T21:54:00.749Z,4.86
2023-03-06T21:56:27.650Z,4.96
2023-03-06T21:58:56.375Z,4.96
2023-03-06T22:01:25.234Z,5.15
2023-03-06T22:03:52.156Z,5.17
2023-03-06T22:06:23.680Z,5.29
2023-03-06T22:08:52.900Z,5.33
2023-03-06T22:11:21.336Z,5.14
2023-03-06T22:13:48.864Z,5.20
2023-03-06T22:16:15.755Z,5.16
2023-03-06T22:18:46.736Z,5.07
2023-03-06T22:21:15.429Z,5.03
2023-03-06T22:23:42.946Z,5.04
2023-03-06T22:26:11.726Z,5.12
2023-03-06T22:28:38.865Z,5.07
2023-03-06T22:31:13.924Z,5.22
2023-03-06T22:33:41.251Z,5.23
2023-03-06T22:36:12.510Z,5.25
2023-03-06T22:38:41.029Z,5.27
2023-03-06T22:41:08.900Z,5.30
2023-03-06T22:43:36.150Z,5.37
2023-03-06T22:46:09.347Z,5.35
2023-03-06T22:48:35.959Z,5.44
2023-03-06T22:51:04.554Z,5.53
2023-03-06T22:53:31.629Z,5.35
2023-03-06T22:55:59.378Z,5.46
2023-03-06T22:58:26.786Z,5.30
2023-03-06T23:00:53.591Z,5.13
2023-03-06T23:03:20.486Z,5.16
2023-03-06T23:05:46.979Z,5.22
2023-03-06T23:08:13.516Z,4.98
2023-03-06T23:10:40.061Z,5.07
2023-03-06T23:13:06.640Z,5.22
2023-03-06T23:15:35.627Z,5.39
2023-03-06T23:18:02.366Z,5.19
2023-03-06T23:20:29.253Z,5.09
2023-03-06T23:22:56.058Z,5.17
2023-03-06T23:25:22.591Z,5.20
2023-03-06T23:27:49.088Z,5.29
2023-03-06T23:30:15.732Z,5.30
2023-03-06T23:32:44.832Z,5.32
2023-03-06T23:35:12.256Z,5.27
2023-03-06T23:37:38.738Z,5.13
2023-03-06T23:40:05.788Z,5.05
2023-03-06T23:42:32.574Z,4.96
2023-03-06T23:44:59.030Z,5.14
2023-03-06T23:47:25.827Z,5.15
2023-03-06T23:49:52.405Z,5.36
2023-03-06T23:52:18.915Z,5.49
2023-03-06T23:54:48.350Z,5.49
2023-03-06T23:57:16.623Z,5.57
2023-03-06T23:59:43.735Z,5.53
